sensor_id;sensor_type;location;lat;lon;timestamp;temperature;humidity
21267;DHT22;10791;53.108;18.326;2022-10-31T00:02:06;10.00;99.90
21267;DHT22;10791;53.108;18.326;2022-10-31T00:07:09;10.00;99.90
21267;DHT22;10791;53.108;18.326;2022-10-31T00:12:13;9.90;99.90
21267;DHT22;10791;53.108;18.326;2022-10-31T00:17:16;9.90;99.90
21267;DHT22;10791;53.108;18.326;2022-10-31T00:22:19;9.90;99.90
21267;DHT22;10791;53.108;18.326;2022-10-31T00:27:22;9.80;99.90
21267;DHT22;10791;53.108;18.326;2022-10-31T00:32:28;9.80;99.90
21267;DHT22;10791;53.108;18.326;2022-10-31T00:37:33;9.80;99.90
21267;DHT22;10791;53.108;18.326;2022-10-31T00:42:36;9.80;99.90
21267;DHT22;10791;53.108;18.326;2022-10-31T00:47:39;9.80;99.90
21267;DHT22;10791;53.108;18.326;2022-10-31T00:52:42;9.80;99.90
21267;DHT22;10791;53.108;18.326;2022-10-31T00:57:49;9.80;99.90
21267;DHT22;10791;53.108;18.326;2022-10-31T01:02:52;9.80;99.90
21267;DHT22;10791;53.108;18.326;2022-10-31T01:07:55;9.80;99.90
21267;DHT22;10791;53.108;18.326;2022-10-31T01:12:58;9.70;99.90
21267;DHT22;10791;53.108;18.326;2022-10-31T01:18:02;9.70;99.90
21267;DHT22;10791;53.108;18.326;2022-10-31T01:23:05;9.80;99.90
21267;DHT22;10791;53.108;18.326;2022-10-31T01:28:09;9.90;99.90
21267;DHT22;10791;53.108;18.326;2022-10-31T01:33:12;9.90;99.90
21267;DHT22;10791;53.108;18.326;2022-10-31T01:38:16;9.90;99.90
21267;DHT22;10791;53.108;18.326;2022-10-31T01:43:19;10.00;99.90
21267;DHT22;10791;53.108;18.326;2022-10-31T01:48:24;9.90;99.90
21267;DHT22;10791;53.108;18.326;2022-10-31T01:53:31;9.90;99.90
21267;DHT22;10791;53.108;18.326;2022-10-31T01:58:35;9.90;99.90
21267;DHT22;10791;53.108;18.326;2022-10-31T02:03:38;10.00;99.90
21267;DHT22;10791;53.108;18.326;2022-10-31T02:08:43;10.00;99.90
21267;DHT22;10791;53.108;18.326;2022-10-31T02:13:47;10.00;99.90
21267;DHT22;10791;53.108;18.326;2022-10-31T02:18:50;10.00;99.90
21267;DHT22;10791;53.108;18.326;2022-10-31T02:24:32;10.00;99.90
21267;DHT22;10791;53.108;18.326;2022-10-31T02:40:33;10.00;99.90
21267;DHT22;10791;53.108;18.326;2022-10-31T02:46:02;10.00;99.90
21267;DHT22;10791;53.108;18.326;2022-10-31T02:51:11;10.00;99.90
21267;DHT22;10791;53.108;18.326;2022-10-31T02:56:17;10.00;99.90
21267;DHT22;10791;53.108;18.326;2022-10-31T03:18:09;9.90;99.90
21267;DHT22;10791;53.108;18.326;2022-10-31T03:23:15;9.90;99.90
21267;DHT22;10791;53.108;18.326;2022-10-31T03:28:25;9.80;99.90
21267;DHT22;10791;53.108;18.326;2022-10-31T03:33:34;9.80;99.90
21267;DHT22;10791;53.108;18.326;2022-10-31T03:38:39;9.70;99.90
21267;DHT22;10791;53.108;18.326;2022-10-31T03:43:52;9.70;99.90
21267;DHT22;10791;53.108;18.326;2022-10-31T03:48:57;9.70;99.90
21267;DHT22;10791;53.108;18.326;2022-10-31T03:54:07;9.70;99.90
21267;DHT22;10791;53.108;18.326;2022-10-31T03:59:26;9.70;99.90
21267;DHT22;10791;53.108;18.326;2022-10-31T04:04:32;9.70;99.90
21267;DHT22;10791;53.108;18.326;2022-10-31T04:09:39;9.80;99.90
21267;DHT22;10791;53.108;18.326;2022-10-31T04:14:47;9.80;99.90
21267;DHT22;10791;53.108;18.326;2022-10-31T04:19:51;9.70;99.90
21267;DHT22;10791;53.108;18.326;2022-10-31T04:24:54;9.80;99.90
21267;DHT22;10791;53.108;18.326;2022-10-31T04:29:58;9.70;99.90
21267;DHT22;10791;53.108;18.326;2022-10-31T04:35:02;9.70;99.90
21267;DHT22;10791;53.108;18.326;2022-10-31T04:40:06;9.70;99.90
21267;DHT22;10791;53.108;18.326;2022-10-31T04:45:09;9.70;99.90
21267;DHT22;10791;53.108;18.326;2022-10-31T04:50:19;9.70;99.90
21267;DHT22;10791;53.108;18.326;2022-10-31T04:55:23;9.70;99.90
21267;DHT22;10791;53.108;18.326;2022-10-31T05:00:26;9.80;99.90
21267;DHT22;10791;53.108;18.326;2022-10-31T05:05:30;9.90;99.90
21267;DHT22;10791;53.108;18.326;2022-10-31T05:10:34;9.90;99.90
21267;DHT22;10791;53.108;18.326;2022-10-31T05:15:37;10.00;99.90
21267;DHT22;10791;53.108;18.326;2022-10-31T05:20:40;10.00;99.90
21267;DHT22;10791;53.108;18.326;2022-10-31T05:25:44;10.00;99.90
21267;DHT22;10791;53.108;18.326;2022-10-31T05:30:47;10.00;99.90
21267;DHT22;10791;53.108;18.326;2022-10-31T05:35:50;10.10;99.90
21267;DHT22;10791;53.108;18.326;2022-10-31T05:40:56;10.10;99.90
21267;DHT22;10791;53.108;18.326;2022-10-31T05:46:05;10.00;99.90
21267;DHT22;10791;53.108;18.326;2022-10-31T05:51:09;10.00;99.90
21267;DHT22;10791;53.108;18.326;2022-10-31T05:56:12;10.10;99.90
21267;DHT22;10791;53.108;18.326;2022-10-31T06:01:15;10.00;99.90
21267;DHT22;10791;53.108;18.326;2022-10-31T06:06:19;10.00;99.90
21267;DHT22;10791;53.108;18.326;2022-10-31T06:11:22;9.90;99.90
21267;DHT22;10791;53.108;18.326;2022-10-31T06:16:25;10.00;99.90
21267;DHT22;10791;53.108;18.326;2022-10-31T06:21:29;10.00;99.90
21267;DHT22;10791;53.108;18.326;2022-10-31T06:26:32;10.00;99.90
21267;DHT22;10791;53.108;18.326;2022-10-31T06:31:35;9.90;99.90
21267;DHT22;10791;53.108;18.326;2022-10-31T06:36:39;10.00;99.90
21267;DHT22;10791;53.108;18.326;2022-10-31T06:41:42;10.00;99.90
21267;DHT22;10791;53.108;18.326;2022-10-31T06:46:47;10.10;99.90
21267;DHT22;10791;53.108;18.326;2022-10-31T06:51:50;10.10;99.90
21267;DHT22;10791;53.108;18.326;2022-10-31T06:56:53;10.00;99.90
21267;DHT22;10791;53.108;18.326;2022-10-31T07:01:57;10.10;99.90
21267;DHT22;10791;53.108;18.326;2022-10-31T07:07:01;10.10;99.90
21267;DHT22;10791;53.108;18.326;2022-10-31T07:12:08;10.10;99.90
21267;DHT22;10791;53.108;18.326;2022-10-31T07:17:12;10.10;99.90
21267;DHT22;10791;53.108;18.326;2022-10-31T07:22:15;10.20;99.90
21267;DHT22;10791;53.108;18.326;2022-10-31T07:27:18;10.30;99.90
21267;DHT22;10791;53.108;18.326;2022-10-31T07:32:21;10.30;99.90
21267;DHT22;10791;53.108;18.326;2022-10-31T07:37:27;10.30;99.90
21267;DHT22;10791;53.108;18.326;2022-10-31T07:42:41;10.40;99.90
21267;DHT22;10791;53.108;18.326;2022-10-31T07:47:47;10.30;99.90
21267;DHT22;10791;53.108;18.326;2022-10-31T07:53:08;10.30;99.90
21267;DHT22;10791;53.108;18.326;2022-10-31T07:58:14;10.30;99.90
21267;DHT22;10791;53.108;18.326;2022-10-31T08:03:19;10.40;99.90
21267;DHT22;10791;53.108;18.326;2022-10-31T08:08:22;10.40;99.90
21267;DHT22;10791;53.108;18.326;2022-10-31T08:13:27;10.40;99.90
21267;DHT22;10791;53.108;18.326;2022-10-31T08:18:32;10.50;99.90
21267;DHT22;10791;53.108;18.326;2022-10-31T08:23:36;10.40;99.90
21267;DHT22;10791;53.108;18.326;2022-10-31T08:28:41;10.50;99.90
21267;DHT22;10791;53.108;18.326;2022-10-31T08:33:46;10.60;99.90
21267;DHT22;10791;53.108;18.326;2022-10-31T08:38:50;10.60;99.90
21267;DHT22;10791;53.108;18.326;2022-10-31T08:43:53;10.60;99.90
21267;DHT22;10791;53.108;18.326;2022-10-31T08:48:57;10.70;99.90
21267;DHT22;10791;53.108;18.326;2022-10-31T08:54:00;10.70;99.90
21267;DHT22;10791;53.108;18.326;2022-10-31T08:59:04;10.80;99.90
21267;DHT22;10791;53.108;18.326;2022-10-31T09:04:07;10.80;99.90
21267;DHT22;10791;53.108;18.326;2022-10-31T09:09:10;10.90;99.90
21267;DHT22;10791;53.108;18.326;2022-10-31T09:14:13;10.90;99.90
21267;DHT22;10791;53.108;18.326;2022-10-31T09:19:17;11.00;99.90
21267;DHT22;10791;53.108;18.326;2022-10-31T09:24:21;11.10;99.90
21267;DHT22;10791;53.108;18.326;2022-10-31T09:29:25;11.00;99.90
21267;DHT22;10791;53.108;18.326;2022-10-31T09:34:28;11.10;99.90
21267;DHT22;10791;53.108;18.326;2022-10-31T09:39:31;11.10;99.90
21267;DHT22;10791;53.108;18.326;2022-10-31T09:55:19;11.30;99.90
21267;DHT22;10791;53.108;18.326;2022-10-31T10:00:23;11.30;99.90
21267;DHT22;10791;53.108;18.326;2022-10-31T10:05:51;11.30;99.90
21267;DHT22;10791;53.108;18.326;2022-10-31T10:21:56;11.40;99.90
21267;DHT22;10791;53.108;18.326;2022-10-31T10:32:31;11.50;99.90
21267;DHT22;10791;53.108;18.326;2022-10-31T10:37:40;11.50;99.90
21267;DHT22;10791;53.108;18.326;2022-10-31T10:53:49;11.70;99.90
21267;DHT22;10791;53.108;18.326;2022-10-31T10:59:14;11.70;99.90
21267;DHT22;10791;53.108;18.326;2022-10-31T11:04:32;11.80;99.90
21267;DHT22;10791;53.108;18.326;2022-10-31T11:09:37;11.70;99.90
21267;DHT22;10791;53.108;18.326;2022-10-31T11:14:46;11.60;99.90
21267;DHT22;10791;53.108;18.326;2022-10-31T11:20:04;11.50;99.90
21267;DHT22;10791;53.108;18.326;2022-10-31T11:25:25;11.50;99.90
21267;DHT22;10791;53.108;18.326;2022-10-31T11:30:30;11.60;99.90
21267;DHT22;10791;53.108;18.326;2022-10-31T11:35:39;11.70;99.90
21267;DHT22;10791;53.108;18.326;2022-10-31T11:40:57;11.80;99.90
21267;DHT22;10791;53.108;18.326;2022-10-31T11:46:14;11.80;99.90
21267;DHT22;10791;53.108;18.326;2022-10-31T11:51:30;11.90;99.90
21267;DHT22;10791;53.108;18.326;2022-10-31T11:56:39;11.90;99.90
21267;DHT22;10791;53.108;18.326;2022-10-31T12:01:48;11.80;99.90
21267;DHT22;10791;53.108;18.326;2022-10-31T12:06:53;11.80;99.90
21267;DHT22;10791;53.108;18.326;2022-10-31T12:43:46;11.90;99.90
21267;DHT22;10791;53.108;18.326;2022-10-31T13:00:05;12.00;99.90
21267;DHT22;10791;53.108;18.326;2022-10-31T13:10:21;12.00;99.90
21267;DHT22;10791;53.108;18.326;2022-10-31T13:15:30;12.10;99.90
21267;DHT22;10791;53.108;18.326;2022-10-31T13:20:53;12.10;99.90
21267;DHT22;10791;53.108;18.326;2022-10-31T13:25:59;12.10;99.90
21267;DHT22;10791;53.108;18.326;2022-10-31T13:31:04;12.10;99.90
21267;DHT22;10791;53.108;18.326;2022-10-31T13:41:51;12.20;99.90
21267;DHT22;10791;53.108;18.326;2022-10-31T13:46:57;12.20;99.90
21267;DHT22;10791;53.108;18.326;2022-10-31T14:02:37;12.20;99.90
21267;DHT22;10791;53.108;18.326;2022-10-31T14:07:48;12.20;99.90
21267;DHT22;10791;53.108;18.326;2022-10-31T14:12:53;12.20;99.90
21267;DHT22;10791;53.108;18.326;2022-10-31T14:18:00;12.20;99.90
21267;DHT22;10791;53.108;18.326;2022-10-31T14:28:34;12.20;99.90
21267;DHT22;10791;53.108;18.326;2022-10-31T14:33:42;12.30;99.90
21267;DHT22;10791;53.108;18.326;2022-10-31T14:44:40;12.20;99.90
21267;DHT22;10791;53.108;18.326;2022-10-31T14:55:13;12.20;99.90
21267;DHT22;10791;53.108;18.326;2022-10-31T15:00:19;12.20;99.90
21267;DHT22;10791;53.108;18.326;2022-10-31T15:05:23;12.10;99.90
21267;DHT22;10791;53.108;18.326;2022-10-31T15:10:31;12.20;99.90
21267;DHT22;10791;53.108;18.326;2022-10-31T15:15:36;12.20;99.90
21267;DHT22;10791;53.108;18.326;2022-10-31T15:20:43;12.10;99.90
21267;DHT22;10791;53.108;18.326;2022-10-31T15:25:47;12.10;99.90
21267;DHT22;10791;53.108;18.326;2022-10-31T15:30:53;12.10;99.90
21267;DHT22;10791;53.108;18.326;2022-10-31T15:36:01;12.10;99.90
21267;DHT22;10791;53.108;18.326;2022-10-31T15:46:27;12.00;99.90
21267;DHT22;10791;53.108;18.326;2022-10-31T15:51:32;12.00;99.90
21267;DHT22;10791;53.108;18.326;2022-10-31T15:56:36;12.00;99.90
21267;DHT22;10791;53.108;18.326;2022-10-31T16:01:40;12.10;99.90
21267;DHT22;10791;53.108;18.326;2022-10-31T16:06:45;12.00;99.90
21267;DHT22;10791;53.108;18.326;2022-10-31T16:11:59;12.00;99.90
21267;DHT22;10791;53.108;18.326;2022-10-31T16:17:02;12.00;99.90
21267;DHT22;10791;53.108;18.326;2022-10-31T16:22:09;12.00;99.90
21267;DHT22;10791;53.108;18.326;2022-10-31T16:27:21;12.00;99.90
21267;DHT22;10791;53.108;18.326;2022-10-31T16:32:54;12.00;99.90
21267;DHT22;10791;53.108;18.326;2022-10-31T16:37:58;12.00;99.90
21267;DHT22;10791;53.108;18.326;2022-10-31T16:43:01;12.00;99.90
21267;DHT22;10791;53.108;18.326;2022-10-31T16:48:09;12.10;99.90
21267;DHT22;10791;53.108;18.326;2022-10-31T16:53:14;12.00;99.90
21267;DHT22;10791;53.108;18.326;2022-10-31T16:58:27;12.00;99.90
21267;DHT22;10791;53.108;18.326;2022-10-31T17:03:31;12.10;99.90
21267;DHT22;10791;53.108;18.326;2022-10-31T17:08:35;12.10;99.90
21267;DHT22;10791;53.108;18.326;2022-10-31T17:13:39;12.10;99.90
21267;DHT22;10791;53.108;18.326;2022-10-31T17:18:43;12.10;99.90
21267;DHT22;10791;53.108;18.326;2022-10-31T17:23:49;12.10;99.90
21267;DHT22;10791;53.108;18.326;2022-10-31T17:28:54;12.10;99.90
21267;DHT22;10791;53.108;18.326;2022-10-31T17:33:58;12.10;99.90
21267;DHT22;10791;53.108;18.326;2022-10-31T17:39:05;12.20;99.90
21267;DHT22;10791;53.108;18.326;2022-10-31T17:44:12;12.20;99.90
21267;DHT22;10791;53.108;18.326;2022-10-31T17:49:16;12.10;99.90
21267;DHT22;10791;53.108;18.326;2022-10-31T17:54:19;12.10;99.90
21267;DHT22;10791;53.108;18.326;2022-10-31T17:59:25;12.10;99.90
21267;DHT22;10791;53.108;18.326;2022-10-31T18:04:31;12.10;99.90
21267;DHT22;10791;53.108;18.326;2022-10-31T18:09:36;12.10;99.90
21267;DHT22;10791;53.108;18.326;2022-10-31T18:14:40;12.20;99.90
21267;DHT22;10791;53.108;18.326;2022-10-31T18:19:49;12.20;99.90
21267;DHT22;10791;53.108;18.326;2022-10-31T18:24:53;12.20;99.90
21267;DHT22;10791;53.108;18.326;2022-10-31T18:30:03;12.20;99.90
21267;DHT22;10791;53.108;18.326;2022-10-31T18:35:07;12.20;99.90
21267;DHT22;10791;53.108;18.326;2022-10-31T18:40:10;12.20;99.90
21267;DHT22;10791;53.108;18.326;2022-10-31T18:45:15;12.10;99.90
21267;DHT22;10791;53.108;18.326;2022-10-31T18:50:39;12.20;99.90
21267;DHT22;10791;53.108;18.326;2022-10-31T18:55:43;12.20;99.90
21267;DHT22;10791;53.108;18.326;2022-10-31T19:00:51;12.10;99.90
21267;DHT22;10791;53.108;18.326;2022-10-31T19:05:56;12.10;99.90
21267;DHT22;10791;53.108;18.326;2022-10-31T19:11:10;12.10;99.90
21267;DHT22;10791;53.108;18.326;2022-10-31T19:16:16;12.20;99.90
21267;DHT22;10791;53.108;18.326;2022-10-31T19:21:20;12.20;99.90
21267;DHT22;10791;53.108;18.326;2022-10-31T19:26:27;12.20;99.90
21267;DHT22;10791;53.108;18.326;2022-10-31T19:31:31;12.10;99.90
21267;DHT22;10791;53.108;18.326;2022-10-31T19:36:36;12.20;99.90
21267;DHT22;10791;53.108;18.326;2022-10-31T19:41:39;12.20;99.90
21267;DHT22;10791;53.108;18.326;2022-10-31T19:46:43;12.20;99.90
21267;DHT22;10791;53.108;18.326;2022-10-31T19:51:55;12.20;99.90
21267;DHT22;10791;53.108;18.326;2022-10-31T19:56:59;12.20;99.90
21267;DHT22;10791;53.108;18.326;2022-10-31T20:02:03;12.20;99.90
21267;DHT22;10791;53.108;18.326;2022-10-31T20:07:08;12.10;99.90
21267;DHT22;10791;53.108;18.326;2022-10-31T20:12:14;12.20;99.90
21267;DHT22;10791;53.108;18.326;2022-10-31T20:17:19;12.10;99.90
21267;DHT22;10791;53.108;18.326;2022-10-31T20:22:23;12.20;99.90
21267;DHT22;10791;53.108;18.326;2022-10-31T20:27:37;12.20;99.90
21267;DHT22;10791;53.108;18.326;2022-10-31T20:33:25;12.20;99.90
21267;DHT22;10791;53.108;18.326;2022-10-31T20:39:28;12.10;99.90
21267;DHT22;10791;53.108;18.326;2022-10-31T20:45:12;12.20;99.90
21267;DHT22;10791;53.108;18.326;2022-10-31T20:50:30;12.20;99.90
21267;DHT22;10791;53.108;18.326;2022-10-31T20:56:12;12.20;99.90
21267;DHT22;10791;53.108;18.326;2022-10-31T21:02:00;12.20;99.90
21267;DHT22;10791;53.108;18.326;2022-10-31T21:07:29;12.20;99.90
21267;DHT22;10791;53.108;18.326;2022-10-31T21:14:05;12.20;99.90
21267;DHT22;10791;53.108;18.326;2022-10-31T21:20:14;12.20;99.90
21267;DHT22;10791;53.108;18.326;2022-10-31T21:25:41;12.20;99.90
21267;DHT22;10791;53.108;18.326;2022-10-31T21:31:03;12.20;99.90
21267;DHT22;10791;53.108;18.326;2022-10-31T22:45:55;12.20;99.90
21267;DHT22;10791;53.108;18.326;2022-10-31T22:51:14;12.10;99.90
21267;DHT22;10791;53.108;18.326;2022-10-31T22:56:19;12.10;99.90
21267;DHT22;10791;53.108;18.326;2022-10-31T23:01:28;12.10;99.90
21267;DHT22;10791;53.108;18.326;2022-10-31T23:06:32;12.10;99.90
21267;DHT22;10791;53.108;18.326;2022-10-31T23:11:39;12.10;99.90
21267;DHT22;10791;53.108;18.326;2022-10-31T23:16:44;12.20;99.90
21267;DHT22;10791;53.108;18.326;2022-10-31T23:21:49;12.20;99.90
21267;DHT22;10791;53.108;18.326;2022-10-31T23:27:05;12.20;99.90
21267;DHT22;10791;53.108;18.326;2022-10-31T23:32:31;12.20;99.90
21267;DHT22;10791;53.108;18.326;2022-10-31T23:37:37;12.20;99.90
21267;DHT22;10791;53.108;18.326;2022-10-31T23:42:40;12.20;99.90
21267;DHT22;10791;53.108;18.326;2022-10-31T23:47:44;12.20;99.90
21267;DHT22;10791;53.108;18.326;2022-10-31T23:52:47;12.10;99.90
21267;DHT22;10791;53.108;18.326;2022-10-31T23:57:50;12.00;99.90
